Terminal Aerodrome Forecast
Issued by NWS Detroit/Pontiac, MI

Home | Current Version | Previous Version | Text Only | Print | Product List | Glossary On
Versions: 1 2 3 4 5 6 7 8 9 10 11 12 13 14 15 16
000
FTUS43 KDTX 221700
TAFFNT
TAF
KFNT 221728Z 2218/2318 21012G20KT P6SM SCT200
     FM230100 24009KT P6SM SCT060 SCT100 BKN200 PROB30 2303/2306
      TSRA BKN035 OVC060CB
     FM230900 32012KT P6SM OVC020
     FM231600 35010KT P6SM OVC040=

USA.gov is the U.S. government's official web portal to all federal, state and local government web resources and services.